Latest Coastal Weather Observations for Maria Island

IDT60701

Issued at 1:52 pm EST Saturday 15 June 2024 (issued every 10 minutes, with the page automatically refreshed every 10 minutes)

About coastal observations | Map of coastal stations | Coastal observations for TAS | Marine services | Other Formats
Station Details ID: 092124 Name: MARIA ISLAND (POINT LESUEUR) Lat: -42.66 Lon: 148.02 Height: 28.0 m
Data from the previous 72 hours. | See also: Recent months at Maria Island
Date/Time
EST
Wind Sea
Height
m
Swell Vis
km
Cloud Weather Temp
°C
Press
MSL
hPa
Rain since
9am
mm
Dir  Spd
kts
Gust
kts
Height
m
Period
s
Dir
15/01:30pm SW 23 25 - - - - - - - 10.5 1022.4 0.0
15/01:00pm SSW 23 28 - - - - - - - 10.4 1022.9 0.0
15/12:30pm SSW 22 27 - - - - - - - 10.7 1023.3 0.0
15/12:00pm SSW 23 27 - - - - - - - 10.5 1023.5 0.0
15/11:30am SSW 21 25 - - - - - - - 10.3 1023.9 0.0
15/11:00am SSW 20 23 - - - - - - - 10.3 1024.3 0.0
15/10:30am SSW 21 25 - - - - - - - 9.9 1024.7 0.0
15/10:00am SSW 21 27 - - - - - - - 9.9 1024.8 0.0
15/09:30am SSW 21 24 - - - - - - - 9.8 1025.0 0.0
15/09:00am SSW 21 24 - - - - - - - 9.4 1025.0 2.8
15/08:30am SW 20 24 - - - - - - - 9.2 1024.9 2.8
15/08:00am SSW 20 25 - - - - - - - 8.9 1025.0 2.8
15/07:30am SSW 19 22 - - - - - - - 9.2 1024.8 2.8
15/07:00am SSW 15 19 - - - - - - - 9.1 1024.8 2.8
15/06:30am SSW 17 21 - - - - - - - 8.8 1024.9 2.8
15/06:00am SSW 17 20 - - - - - - - 8.8 1024.8 2.8
15/05:30am SSW 17 20 - - - - - - - 8.6 1024.7 2.8
15/05:00am SSW 15 18 - - - - - - - 8.5 1024.8 2.8
15/04:30am SW 17 22 - - - - - - - 8.4 1024.9 2.8
15/04:00am SSW 16 20 - - - - - - - 8.5 1025.0 2.8
15/03:30am SSW 16 19 - - - - - - - 8.4 1025.1 2.8
15/03:00am SSW 16 20 - - - - - - - 8.4 1025.2 2.8
15/02:30am SSW 16 19 - - - - - - - 8.2 1025.3 2.8
15/02:00am SSW 17 20 - - - - - - - 8.3 1025.2 2.8
15/01:30am SSW 15 20 - - - - - - - 8.4 1025.2 2.8
15/01:00am SSW 13 16 - - - - - - - 8.1 1025.4 2.4
15/12:30am SSW 16 19 - - - - - - - 8.3 1025.4 2.0
15/12:00am SSW 11 13 - - - - - - Recent precip. 7.9 1025.7 1.2
 
Date/Time
EST
Wind Sea
Height
m
Swell Vis
km
Cloud Weather Temp
°C
Press
MSL
hPa
Rain since
9am
mm
Dir  Spd
kts
Gust
kts
Height
m
Period
s
Dir
14/11:30pm SW 14 18 - - - - - - - 8.3 1025.8 1.0
14/11:00pm SSW 12 18 - - - - - - - 8.2 1025.9 1.0
14/10:30pm SSW 14 20 - - - - - - - 8.3 1025.9 0.4
14/10:00pm SSW 12 14 - - - - - - - 7.9 1026.0 0.2
14/09:30pm SSE 12 16 - - - - - - - 9.1 1026.0 0.2
14/09:00pm SSW 14 18 - - - - - - - 8.4 1026.1 0.2
14/08:30pm SSW 14 19 - - - - - - - 8.4 1026.2 0.2
14/08:00pm ESE 5 8 - - - - - - - 7.6 1026.3 0.2
14/07:30pm S 15 18 - - - - - - - 8.5 1026.2 0.0
14/07:00pm SSW 14 17 - - - - - - - 8.9 1026.0 0.0
14/06:30pm SSW 17 20 - - - - - - - 8.3 1026.0 0.0
14/06:00pm SSW 16 18 - - - - - - - 8.1 1026.0 0.0
14/05:30pm SSE 8 12 - - - - - - - 8.0 1026.0 0.0
14/05:00pm S 15 17 - - - - - - - 9.3 1025.8 0.0
14/04:30pm S 11 14 - - - - - - - 9.3 1025.7 0.0
14/04:00pm SSE 13 16 - - - - - - - 9.4 1025.6 0.0
14/03:30pm SSW 10 17 - - - - - - - 9.3 1025.4 0.0
14/03:00pm SSW 12 16 - - - - - - - 9.7 1025.4 0.0
14/02:30pm SSE 10 14 - - - - - - - 9.4 1025.4 0.0
14/02:00pm S 9 11 - - - - - - - 9.9 1025.4 0.0
14/01:30pm SSE 12 15 - - - - - - - 10.0 1025.6 0.0
14/01:00pm SSE 8 12 - - - - - - - 9.9 1025.6 0.0
14/12:30pm SSE 9 13 - - - - - - - 10.0 1025.8 0.0
14/12:00pm S 9 12 - - - - - - - 9.8 1025.9 0.0
14/11:30am SSE 10 13 - - - - - - - 10.0 1026.2 0.0
14/11:00am SE 8 13 - - - - - - - 9.8 1026.5 0.0
14/10:30am S 11 14 - - - - - - - 9.7 1026.7 0.0
14/10:00am S 12 15 - - - - - - - 9.6 1026.6 0.0
14/09:30am SSE 9 13 - - - - - - - 9.4 1026.4 0.0
14/09:00am SSE 11 15 - - - - - - - 9.4 1026.4 0.6
14/08:30am SE 8 11 - - - - - - - 9.3 1026.3 0.6
14/08:00am SE 10 13 - - - - - - - 9.5 1026.0 0.6
14/07:30am SSE 8 9 - - - - - - - 9.6 1025.7 0.6
14/07:00am SSE 10 13 - - - - - - - 9.7 1025.6 0.6
14/06:30am SSE 8 12 - - - - - - - 9.7 1025.4 0.6
14/06:00am SSW 10 13 - - - - - - - 9.7 1025.2 0.6
14/05:30am SSW 9 13 - - - - - - - 9.7 1025.0 0.6
14/05:00am SSE 7 9 - - - - - - - 9.8 1024.9 0.6
14/04:30am SE 6 8 - - - - - - - 9.5 1024.8 0.6
14/04:00am SE 12 15 - - - - - - - 9.4 1024.7 0.6
14/03:30am SSE 9 12 - - - - - - - 9.8 1024.5 0.6
14/03:00am SE 8 10 - - - - - - - 9.5 1024.6 0.6
14/02:30am SE 11 14 - - - - - - - 9.5 1024.7 0.6
14/02:00am S 9 15 - - - - - - - 9.6 1024.6 0.6
14/01:30am SSW 10 12 - - - - - - - 9.4 1024.5 0.6
14/01:00am SSW 12 16 - - - - - - - 9.4 1024.5 0.6
14/12:30am SSE 9 13 - - - - - - - 9.4 1024.4 0.6
14/12:00am SE 9 12 - - - - - - Recent precip. 9.2 1024.5 0.4
 
Date/Time
EST
Wind Sea
Height
m
Swell Vis
km
Cloud Weather Temp
°C
Press
MSL
hPa
Rain since
9am
mm
Dir  Spd
kts
Gust
kts
Height
m
Period
s
Dir
13/11:30pm SSE 8 12 - - - - - - - 9.1 1024.3 0.4
13/11:00pm SSE 11 18 - - - - - - - 9.1 1024.4 0.0
13/10:30pm SSE 12 18 - - - - - - - 8.6 1024.4 0.0
13/10:00pm SSW 16 21 - - - - - - - 9.8 1024.2 0.0
13/09:30pm SSW 10 12 - - - - - - - 9.7 1024.1 0.0
13/09:00pm SSE 13 16 - - - - - - - 9.2 1024.1 0.0
13/08:30pm SSW 12 15 - - - - - - - 9.8 1023.8 0.0
13/08:00pm SSW 13 15 - - - - - - - 9.7 1023.7 0.0
13/07:30pm SSW 11 13 - - - - - - - 9.7 1023.4 0.0
13/07:00pm SSW 14 17 - - - - - - - 9.8 1023.1 0.0
13/06:30pm SW 13 16 - - - - - - - 9.8 1022.9 0.0
13/06:00pm SW 13 14 - - - - - - - 9.9 1022.5 0.0
13/05:30pm SW 13 15 - - - - - - - 9.8 1022.2 0.0
13/05:00pm SW 12 16 - - - - - - - 9.7 1022.1 0.0
13/04:30pm SW 16 18 - - - - - - - 9.7 1021.9 0.0
13/04:00pm SSW 14 18 - - - - - - - 10.1 1021.6 0.0
13/03:30pm SW 16 18 - - - - - - - 9.9 1021.4 0.0
13/03:00pm SSW 18 24 - - - - - - - 9.6 1021.1 0.0
13/02:45pm SSW 17 26 - - - - - - - 10.2 1020.9 0.0
13/02:30pm SW 11 17 - - - - - - - 11.5 1020.7 0.0
13/02:00pm SW 11 15 - - - - - - - 10.9 1020.7 0.0
13/01:30pm SSW 12 17 - - - - - - - 10.9 1020.7 0.0
13/01:00pm SW 14 19 - - - - - - - 11.2 1020.5 0.0
13/12:30pm SSW 14 17 - - - - - - - 11.4 1020.6 0.0
13/12:00pm SSW 10 13 - - - - - - - 11.3 1020.6 0.0
13/11:30am SSW 12 16 - - - - - - - 10.9 1020.9 0.0
13/11:00am SW 14 17 - - - - - - - 10.5 1021.0 0.0
13/10:30am SW 8 15 - - - - - - - 10.4 1021.1 0.0
13/10:00am WSW 7 10 - - - - - - - 9.4 1021.1 0.0
13/09:30am WNW 8 11 - - - - - - - 8.6 1021.1 0.0
13/09:00am WNW 10 12 - - - - - - - 7.6 1020.9 0.4
13/08:30am W 10 13 - - - - - - - 8.3 1020.6 0.4
13/08:00am W 9 10 - - - - - - - 7.8 1020.3 0.4
13/07:30am WNW 8 9 - - - - - - - 7.6 1020.1 0.4
13/07:00am NW 12 13 - - - - - - - 7.6 1019.8 0.4
13/06:30am NW 9 11 - - - - - - - 7.3 1019.4 0.4
13/06:00am NNW 6 7 - - - - - - - 6.9 1019.3 0.4
13/05:30am WNW 7 12 - - - - - - - 7.0 1019.1 0.4
13/05:00am WNW 8 11 - - - - - - - 7.2 1018.8 0.4
13/04:30am W 9 11 - - - - - - - 7.7 1018.8 0.4
13/04:00am WNW 8 10 - - - - - - - 7.8 1018.9 0.4
13/03:30am W 8 10 - - - - - - - 7.9 1018.7 0.4
13/03:00am WSW 10 13 - - - - - - - 8.6 1018.6 0.4
13/02:30am W 11 15 - - - - - - - 8.0 1018.7 0.4
13/02:00am W 14 18 - - - - - - - 8.5 1018.7 0.4
13/01:30am W 12 15 - - - - - - - 8.4 1018.8 0.4
13/01:00am W 12 14 - - - - - - - 8.0 1018.5 0.4
13/12:30am W 13 15 - - - - - - - 7.9 1018.1 0.4
13/12:00am W 10 13 - - - - - - - 8.4 1018.1 0.4
 
Date/Time
EST
Wind Sea
Height
m
Swell Vis
km
Cloud Weather Temp
°C
Press
MSL
hPa
Rain since
9am
mm
Dir  Spd
kts
Gust
kts
Height
m
Period
s
Dir
12/11:30pm W 10 13 - - - - - - - 8.4 1018.1 0.4
12/11:00pm W 9 11 - - - - - - - 8.6 1018.2 0.4
12/10:30pm W 11 15 - - - - - - - 8.6 1018.1 0.4
12/10:00pm WSW 13 18 - - - - - - - 8.9 1017.7 0.4
12/09:30pm WSW 12 17 - - - - - - - 9.1 1017.6 0.4
12/09:00pm WSW 13 17 - - - - - - - 9.1 1017.3 0.4
12/08:30pm SW 15 19 - - - - - - - 9.0 1016.9 0.4
12/08:00pm SW 12 20 - - - - - - - 9.1 1016.6 0.4
12/07:30pm WSW 13 17 - - - - - - - 9.0 1016.2 0.4
12/07:00pm WSW 13 17 - - - - - - - 8.8 1015.8 0.4
12/06:30pm SW 12 15 - - - - - - - 8.8 1015.4 0.4
12/06:00pm SW 12 17 - - - - - - - 8.8 1015.0 0.4
12/05:30pm WSW 10 14 - - - - - - - 8.3 1014.7 0.4
12/05:00pm SW 17 22 - - - - - - - 8.4 1014.2 0.4
12/04:30pm SW 18 22 - - - - - - - 8.3 1013.7 0.4
12/04:00pm SW 22 29 - - - - - - - 9.0 1012.7 0.2
12/03:30pm SW 20 27 - - - - - - - 9.7 1012.2 0.2
12/03:00pm SW 21 26 - - - - - - - 10.0 1011.7 0.2
12/02:30pm SW 22 32 - - - - - - - 9.4 1011.1 0.2
12/02:29pm SW 21 32 - - - - - - - 9.5 1011.0 0.2
12/02:00pm WSW 21 26 - - - - - - - 9.2 1010.4 0.2

Other formats

Comma delimited format used in spreadsheet applications
http://www.bom.gov.au/fwo/IDT60701/IDT60701.95988.axf

JavaScript Object Notation format (JSON) in row-major order
http://www.bom.gov.au/fwo/IDT60701/IDT60701.95988.json

Data quality

Most of these data are generated automatically and are frequently updated. Quality checks on data are not normally performed. It is possible for incorrect values to appear. Refer to information at About Latest Weather Observations and please check the disclaimer before using these data.